Time;durP1;ratioP1;P1;durP2;ratioP2;P2;SDS_P1;SDS_P2;PMS_P1;PMS_P2;Temp;Humidity;BMP_temperature;BMP_pressure;BME280_temperature;BME280_humidity;BME280_pressure;Samples;Min_cycle;Max_cycle;Signal;HPM_P1;HPM_P2
2022/03/25 00:02:26;;;;;;;36.90;14.75;;;;;;;0.99;45.78;100144.38;4874320;29;20049;-78
2022/03/25 00:04:52;;;;;;;46.50;15.15;;;;;;;0.74;46.70;100110.19;4900232;29;20041;-82
2022/03/25 00:07:18;;;;;;;36.55;14.60;;;;;;;0.79;46.59;100116.31;4901190;29;20099;-79
2022/03/25 00:09:44;;;;;;;41.25;14.82;;;;;;;0.78;46.55;100119.69;4901263;29;20109;-80
2022/03/25 00:12:10;;;;;;;39.17;14.68;;;;;;;0.84;46.85;100130.16;4897815;29;20056;-79
2022/03/25 00:14:36;;;;;;;42.75;15.27;;;;;;;0.71;46.38;100112.63;4882771;29;20040;-80
2022/03/25 00:17:03;;;;;;;51.22;17.02;;;;;;;0.78;46.77;100113.72;4884168;29;20049;-79
2022/03/25 00:19:29;;;;;;;38.20;15.27;;;;;;;0.70;46.94;100103.19;4885784;29;20108;-80
2022/03/25 00:21:55;;;;;;;38.65;16.30;;;;;;;0.76;46.52;100126.47;4868664;29;20092;-77
2022/03/25 00:24:23;;;;;;;39.47;15.35;;;;;;;0.83;46.03;100143.78;4868766;29;20083;-78
2022/03/25 00:26:49;;;;;;;36.05;14.85;;;;;;;0.55;46.84;100101.81;4868103;29;20063;-81
2022/03/25 00:29:15;;;;;;;37.20;15.60;;;;;;;0.76;46.89;100141.84;4865597;29;20055;-79
2022/03/25 00:31:41;;;;;;;41.70;15.23;;;;;;;0.68;47.34;100136.41;4848293;29;20057;-79
2022/03/25 00:34:09;;;;;;;44.67;16.77;;;;;;;0.65;47.12;100127.75;4848636;29;20405;-83
2022/03/25 00:36:36;;;;;;;37.55;15.93;;;;;;;0.73;47.17;100147.72;4848219;29;20045;-80
2022/03/25 00:39:02;;;;;;;43.67;16.10;;;;;;;0.69;46.89;100142.44;4882052;29;20071;-82
2022/03/25 00:41:29;;;;;;;44.55;15.95;;;;;;;0.65;47.88;100151.72;4864508;29;20071;-79
2022/03/25 00:43:55;;;;;;;40.63;15.35;;;;;;;0.55;47.82;100126.56;4880441;29;20572;-81
2022/03/25 00:46:21;;;;;;;36.92;15.95;;;;;;;0.54;47.87;100127.38;4880014;29;20101;-80
2022/03/25 00:48:47;;;;;;;48.88;16.50;;;;;;;0.52;47.48;100132.44;4863250;29;20049;-80
2022/03/25 00:51:13;;;;;;;43.65;16.98;;;;;;;0.50;48.03;100141.75;4865657;29;20052;-80
2022/03/25 00:53:40;;;;;;;56.15;16.50;;;;;;;0.52;47.85;100145.25;4854382;29;20070;-82
2022/03/25 00:56:09;;;;;;;51.42;16.33;;;;;;;0.51;48.11;100138.38;4869653;29;20056;-80
2022/03/25 00:58:35;;;;;;;37.97;15.68;;;;;;;0.36;48.25;100118.19;4848062;29;20497;-81
2022/03/25 01:01:01;;;;;;;44.53;15.05;;;;;;;0.48;48.09;100138.25;4848723;29;20049;-80
2022/03/25 01:03:31;;;;;;;34.95;15.57;;;;;;;0.34;48.44;100122.38;4849059;29;20052;-79
2022/03/25 01:05:57;;;;;;;46.67;16.75;;;;;;;0.44;48.55;100139.81;4863120;29;20075;-81
2022/03/25 01:08:24;;;;;;;44.15;15.88;;;;;;;0.22;48.50;100112.53;4861072;29;20051;-80
2022/03/25 01:10:50;;;;;;;41.63;16.92;;;;;;;0.20;48.80;100114.16;4879226;29;20505;-79
2022/03/25 01:13:16;;;;;;;37.90;16.33;;;;;;;0.25;48.98;100138.28;4832234;29;20048;-82
2022/03/25 01:15:42;;;;;;;44.92;17.98;;;;;;;0.02;49.22;100108.34;4863354;29;20075;-79
2022/03/25 01:18:09;;;;;;;49.22;16.90;;;;;;;0.05;49.87;100116.16;4863526;29;20505;-80
2022/03/25 01:20:36;;;;;;;44.53;17.17;;;;;;;0.10;50.00;100118.06;4879107;29;20143;-80
2022/03/25 01:23:02;;;;;;;40.85;16.73;;;;;;;0.20;50.33;100137.22;4863709;29;20044;-81
2022/03/25 01:25:30;;;;;;;37.70;15.90;;;;;;;0.23;50.22;100134.78;4879768;29;20513;-81
2022/03/25 01:27:56;;;;;;;44.63;17.08;;;;;;;0.09;50.22;100107.78;4879696;29;20063;-80
2022/03/25 01:30:22;;;;;;;43.38;17.30;;;;;;;0.17;49.68;100123.44;4862147;29;20469;-79
2022/03/25 01:32:48;;;;;;;45.80;17.00;;;;;;;-0.12;50.47;100075.44;4862064;29;20051;-81
2022/03/25 01:35:14;;;;;;;43.65;17.33;;;;;;;0.06;50.40;100110.22;4846640;29;20048;-81
2022/03/25 01:37:43;;;;;;;37.08;16.70;;;;;;;0.07;50.43;100111.97;4847045;29;20116;-80
2022/03/25 01:40:09;;;;;;;51.47;16.92;;;;;;;-0.25;50.78;100057.84;4862844;29;20041;-81
2022/03/25 01:42:41;;;;;;;39.58;16.90;;;;;;;-0.23;50.82;100082.69;4862562;29;20068;-80
2022/03/25 01:45:11;;;;;;;49.47;18.13;;;;;;;0.09;50.94;100121.44;4861682;29;20517;-80
2022/03/25 01:47:38;;;;;;;36.65;16.75;;;;;;;-0.10;51.20;100088.28;4861482;29;20051;-79
2022/03/25 01:50:17;;;;;;;44.42;17.38;;;;;;;-0.26;51.31;100051.00;4861366;29;20056;-79
2022/03/25 01:52:44;;;;;;;46.10;18.02;;;;;;;0.09;50.81;100112.91;4861397;29;20064;-79
2022/03/25 01:55:26;;;;;;;46.17;17.52;;;;;;;0.19;51.27;100127.78;4846039;29;20045;-81
2022/03/25 01:57:58;;;;;;;55.25;17.83;;;;;;;0.18;50.67;100133.72;4861400;29;20441;-82
2022/03/25 02:00:28;;;;;;;44.90;17.10;;;;;;;0.17;51.36;100131.97;4861410;29;20597;-80
2022/03/25 02:02:54;;;;;;;49.50;16.90;;;;;;;0.12;51.30;100134.34;4862181;29;20052;-78
2022/03/25 02:05:21;;;;;;;44.13;17.00;;;;;;;0.19;50.51;100143.16;4862318;29;20587;-79
2022/03/25 02:07:47;;;;;;;41.92;16.27;;;;;;;-0.02;50.77;100108.22;4879200;29;20074;-79
2022/03/25 02:10:18;;;;;;;45.28;16.92;;;;;;;0.17;50.90;100134.53;4862433;29;20052;-82
2022/03/25 02:12:45;;;;;;;42.17;17.60;;;;;;;0.05;50.69;100106.78;4861514;29;20041;-80
2022/03/25 02:15:12;;;;;;;41.78;17.48;;;;;;;0.17;51.17;100123.44;4878313;29;20521;-82
2022/03/25 02:17:38;;;;;;;46.90;17.15;;;;;;;0.22;51.02;100132.16;4846056;29;20041;-79
2022/03/25 02:20:09;;;;;;;40.30;17.08;;;;;;;0.13;51.27;100119.88;4849445;29;20088;-79
2022/03/25 02:22:39;;;;;;;44.92;15.73;;;;;;;0.29;51.08;100155.50;4861710;29;20049;-79
2022/03/25 02:25:08;;;;;;;51.13;18.52;;;;;;;0.22;50.64;100140.69;4861720;29;20045;-81
2022/03/25 02:27:37;;;;;;;38.53;16.45;;;;;;;0.06;50.98;100112.78;4846132;29;20041;-80
2022/03/25 02:30:07;;;;;;;48.20;17.17;;;;;;;0.35;51.05;100161.66;4861698;29;20089;-78
2022/03/25 02:32:35;;;;;;;37.63;16.00;;;;;;;0.33;50.91;100156.47;4861242;29;20132;-82
2022/03/25 02:35:01;;;;;;;41.83;17.25;;;;;;;0.26;50.83;100141.69;4878674;29;20521;-81
2022/03/25 02:37:29;;;;;;;39.90;16.17;;;;;;;0.36;50.83;100155.72;4862137;29;20040;-83
2022/03/25 02:39:55;;;;;;;35.25;16.65;;;;;;;0.38;51.03;100154.09;4862872;29;20049;-83
2022/03/25 02:42:21;;;;;;;44.08;18.13;;;;;;;0.22;50.75;100125.34;4847168;29;20045;-81
2022/03/25 02:44:48;;;;;;;49.83;18.63;;;;;;;0.37;51.08;100152.34;4862362;29;20045;-80
2022/03/25 02:47:16;;;;;;;45.08;17.10;;;;;;;0.24;50.68;100130.50;4848636;29;20040;-79
2022/03/25 02:49:43;;;;;;;42.03;17.25;;;;;;;0.35;51.22;100144.59;4875753;29;20159;-77
2022/03/25 02:52:09;;;;;;;49.08;18.20;;;;;;;0.40;50.70;100165.25;4892551;29;20044;-80
2022/03/25 02:54:35;;;;;;;53.35;19.25;;;;;;;0.36;50.98;100158.28;4875488;29;20041;-80
2022/03/25 02:57:01;;;;;;;45.35;18.95;;;;;;;0.30;51.29;100156.34;4882304;29;20061;-80
2022/03/25 02:59:27;;;;;;;43.88;17.33;;;;;;;0.21;51.68;100156.88;4898875;29;20049;-78
2022/03/25 03:01:53;;;;;;;48.13;17.67;;;;;;;-0.01;51.37;100130.44;4890442;29;20205;-78
2022/03/25 03:04:19;;;;;;;53.55;17.75;;;;;;;0.15;51.67;100164.31;4873492;29;20044;-80
2022/03/25 03:06:45;;;;;;;52.95;17.05;;;;;;;0.09;51.54;100164.94;4897313;29;20151;-81
2022/03/25 03:09:11;;;;;;;44.30;18.35;;;;;;;0.06;51.94;100156.28;4884435;29;20521;-81
2022/03/25 03:11:38;;;;;;;47.28;18.05;;;;;;;-0.04;52.05;100139.69;4869373;29;20029;-82
2022/03/25 03:14:04;;;;;;;41.58;16.38;;;;;;;-0.04;51.85;100132.88;4884551;29;20110;-80
2022/03/25 03:16:31;;;;;;;40.53;16.95;;;;;;;0.27;52.15;100179.28;4868688;29;20077;-81
2022/03/25 03:18:57;;;;;;;41.00;16.88;;;;;;;0.14;52.34;100148.09;4887816;29;20128;-80
2022/03/25 03:21:27;;;;;;;40.97;17.40;;;;;;;0.27;52.17;100192.97;4880490;29;20065;-78
2022/03/25 03:23:53;;;;;;;38.78;15.18;;;;;;;0.27;51.83;100180.16;4865648;29;20051;-82
2022/03/25 03:26:20;;;;;;;47.70;16.48;;;;;;;0.01;51.66;100138.16;4858730;29;20041;-81
2022/03/25 03:28:46;;;;;;;49.85;17.73;;;;;;;0.45;52.14;100181.69;4874011;29;20074;-79
2022/03/25 03:31:13;;;;;;;40.72;17.00;;;;;;;0.27;51.75;100152.00;4856519;29;20063;-78
2022/03/25 03:33:38;;;;;;;37.50;16.35;;;;;;;0.48;52.00;100174.13;4872283;29;20509;-81
2022/03/25 03:36:04;;;;;;;38.67;16.92;;;;;;;0.58;51.64;100181.31;4861261;29;20143;-81
2022/03/25 03:38:31;;;;;;;59.58;17.98;;;;;;;0.71;51.33;100186.91;4860060;29;20036;-80
2022/03/25 03:40:56;;;;;;;39.65;16.30;;;;;;;0.85;52.01;100185.72;4876766;29;20114;-81
2022/03/25 03:43:22;;;;;;;37.15;15.70;;;;;;;0.80;51.33;100145.38;4876888;29;20056;-79
2022/03/25 03:45:48;;;;;;;43.08;16.10;;;;;;;1.00;51.79;100158.91;4865756;29;20072;-80
2022/03/25 03:48:14;;;;;;;39.45;17.60;;;;;;;1.31;51.36;100189.09;4879031;29;20080;-80
2022/03/25 03:50:40;;;;;;;45.60;16.63;;;;;;;1.28;51.22;100165.88;4862317;29;20497;-81
2022/03/25 03:53:07;;;;;;;37.95;15.98;;;;;;;1.55;51.35;100179.59;4853165;29;20049;-79
2022/03/25 03:55:33;;;;;;;43.05;19.55;;;;;;;1.60;50.70;100160.09;4851718;29;20045;-79
2022/03/25 03:58:17;;;;;;;52.58;19.50;;;;;;;1.64;50.95;100141.44;4848784;29;20100;-82
2022/03/25 04:00:43;;;;;;;40.88;16.40;;;;;;;2.13;50.57;100192.56;4844970;29;20097;-79
2022/03/25 04:03:11;;;;;;;36.70;15.90;;;;;;;2.03;50.60;100153.78;4845023;29;20036;-81
2022/03/25 04:05:38;;;;;;;38.47;15.68;;;;;;;2.44;50.11;100190.97;4844103;29;20048;-82
2022/03/25 04:08:04;;;;;;;37.80;14.50;;;;;;;2.44;49.71;100162.72;4875606;29;20053;-79
2022/03/25 04:10:30;;;;;;;35.42;15.57;;;;;;;2.73;49.45;100186.69;4878168;29;20057;-80
2022/03/25 04:12:56;;;;;;;38.78;16.00;;;;;;;2.86;49.86;100199.09;4844408;29;20536;-81
2022/03/25 04:15:22;;;;;;;42.90;16.65;;;;;;;2.98;49.56;100183.13;4845461;29;20096;-80
2022/03/25 04:17:48;;;;;;;40.13;16.17;;;;;;;3.03;49.46;100175.56;4859386;29;20041;-80
2022/03/25 04:20:15;;;;;;;31.88;15.57;;;;;;;3.21;48.86;100187.16;4858947;29;20159;-77
2022/03/25 04:22:42;;;;;;;35.42;15.85;;;;;;;3.34;49.17;100194.38;4859064;29;20436;-81
2022/03/25 04:25:08;;;;;;;32.45;16.38;;;;;;;3.39;49.22;100173.94;4876072;29;20501;-79
2022/03/25 04:27:56;;;;;;;37.20;16.40;;;;;;;3.13;48.80;100113.25;4875979;29;20037;-82
2022/03/25 04:30:27;;;;;;;34.40;15.43;;;;;;;3.62;48.44;100189.97;4860056;29;20045;-80
2022/03/25 04:32:55;;;;;;;43.28;15.65;;;;;;;3.78;47.96;100193.81;4860267;29;20045;-81
2022/03/25 04:35:23;;;;;;;38.38;15.52;;;;;;;3.77;48.48;100166.31;4859618;29;20096;-81
2022/03/25 04:37:51;;;;;;;37.88;15.20;;;;;;;3.91;48.01;100170.09;4859325;29;20045;-77
2022/03/25 04:40:19;;;;;;;34.92;15.00;;;;;;;3.97;47.65;100171.06;4876646;29;20047;-81
2022/03/25 04:42:50;;;;;;;34.00;15.52;;;;;;;4.08;47.72;100177.38;4861172;29;20441;-80
2022/03/25 04:45:22;;;;;;;39.00;16.35;;;;;;;4.04;47.65;100173.84;4863328;29;20036;-83
2022/03/25 04:47:48;;;;;;;41.03;17.42;;;;;;;4.09;47.63;100181.66;4848589;29;20064;-79
2022/03/25 04:50:15;;;;;;;43.10;21.42;;;;;;;4.06;47.71;100173.88;4880876;29;20057;-82
2022/03/25 04:52:42;;;;;;;47.47;21.25;;;;;;;3.99;46.84;100182.28;4864687;29;20366;-81
2022/03/25 04:55:08;;;;;;;41.58;20.38;;;;;;;3.96;48.07;100188.25;4870288;29;20051;-76
2022/03/25 04:57:34;;;;;;;44.17;18.55;;;;;;;3.87;47.94;100160.53;4886712;29;20041;-79
2022/03/25 05:00:00;;;;;;;41.55;17.35;;;;;;;3.98;47.49;100176.25;4885514;29;20173;-78
2022/03/25 05:02:26;;;;;;;35.60;16.75;;;;;;;3.74;48.32;100136.22;4870089;29;20096;-81
2022/03/25 05:04:55;;;;;;;37.20;17.10;;;;;;;3.92;48.43;100151.22;4885286;29;20151;-79
2022/03/25 05:07:21;;;;;;;31.63;16.50;;;;;;;4.21;48.24;100189.69;4868046;29;20567;-80
2022/03/25 05:09:47;;;;;;;43.65;17.13;;;;;;;4.18;48.20;100150.97;4867808;29;20048;-82
2022/03/25 05:12:14;;;;;;;38.35;17.35;;;;;;;4.20;47.91;100145.84;4869957;29;20041;-82
2022/03/25 05:14:41;;;;;;;42.33;16.65;;;;;;;4.43;48.07;100174.72;4885371;29;20113;-78
2022/03/25 05:17:07;;;;;;;41.03;16.42;;;;;;;4.06;47.47;100109.50;4851433;29;20036;-80
2022/03/25 05:19:33;;;;;;;51.90;17.05;;;;;;;4.41;47.83;100148.03;4884938;29;20185;-79
2022/03/25 05:22:01;;;;;;;43.45;17.80;;;;;;;4.29;47.56;100101.41;4867568;29;20059;-80
2022/03/25 05:24:27;;;;;;;41.53;16.42;;;;;;;4.95;47.49;100177.50;4854898;29;20047;-77
2022/03/25 05:26:54;;;;;;;37.58;16.02;;;;;;;5.07;47.40;100166.56;4873751;29;20104;-79
2022/03/25 05:29:20;;;;;;;42.50;16.45;;;;;;;5.28;47.18;100178.13;4891712;29;20056;-79
2022/03/25 05:31:47;;;;;;;34.17;16.27;;;;;;;5.35;47.14;100177.44;4886467;29;20040;-81
2022/03/25 05:34:12;;;;;;;40.33;17.92;;;;;;;5.54;46.84;100176.03;4867583;29;20077;-80
2022/03/25 05:36:39;;;;;;;42.00;16.85;;;;;;;5.68;46.82;100172.84;4886076;29;20052;-80
2022/03/25 05:39:05;;;;;;;40.95;18.08;;;;;;;5.69;46.43;100159.94;4852880;29;20045;-83
2022/03/25 05:41:32;;;;;;;34.45;17.13;;;;;;;5.98;46.30;100187.06;4884378;29;20045;-79
2022/03/25 05:43:58;;;;;;;42.55;17.45;;;;;;;5.89;46.20;100146.47;4884852;29;20056;-79
2022/03/25 05:46:27;;;;;;;42.28;16.83;;;;;;;6.12;45.54;100164.06;4888119;29;20139;-84
2022/03/25 05:48:53;;;;;;;47.58;17.40;;;;;;;6.31;45.56;100168.66;4868475;29;20041;-82
2022/03/25 05:51:18;;;;;;;33.63;16.63;;;;;;;6.51;44.87;100188.75;4869163;29;20109;-78
2022/03/25 05:53:45;;;;;;;42.72;16.90;;;;;;;6.69;45.42;100193.31;4861056;29;20067;-85
2022/03/25 05:56:11;;;;;;;49.08;19.08;;;;;;;6.52;45.21;100133.63;4883010;29;20029;-86
2022/03/25 05:58:38;;;;;;;40.33;17.52;;;;;;;6.37;45.03;100087.78;4861072;29;20033;-84
2022/03/25 06:01:06;;;;;;;39.17;17.70;;;;;;;7.12;44.18;100192.13;4852420;29;20088;-80
2022/03/25 06:03:32;;;;;;;41.85;18.15;;;;;;;7.27;44.03;100176.78;4882641;29;20052;-83
2022/03/25 06:06:04;;;;;;;41.58;17.95;;;;;;;7.57;43.49;100192.59;4881936;29;20112;-82
2022/03/25 06:08:30;;;;;;;46.65;18.52;;;;;;;7.62;43.44;100176.25;4882222;29;20076;-84
2022/03/25 06:10:57;;;;;;;40.35;17.58;;;;;;;7.88;43.43;100185.09;4865919;29;20048;-84
2022/03/25 06:13:23;;;;;;;38.20;17.23;;;;;;;8.00;42.76;100174.84;4864935;29;20033;-78
2022/03/25 06:15:49;;;;;;;44.38;18.65;;;;;;;8.38;42.46;100207.94;4850842;29;20155;-79
2022/03/25 06:18:16;;;;;;;59.15;20.35;;;;;;;8.25;42.04;100162.06;4865543;29;20041;-78
2022/03/25 06:20:42;;;;;;;48.50;19.80;;;;;;;8.64;42.01;100194.28;4849309;29;20059;-84
2022/03/25 06:23:08;;;;;;;44.58;20.45;;;;;;;8.67;41.79;100173.56;4867106;29;20474;-80
2022/03/25 06:25:34;;;;;;;52.17;21.25;;;;;;;8.95;41.37;100194.41;4880205;29;20041;-82
2022/03/25 06:28:04;;;;;;;38.00;19.10;;;;;;;9.18;41.06;100211.81;4862675;29;20069;-82
2022/03/25 06:30:36;;;;;;;57.97;25.73;;;;;;;9.16;40.72;100191.06;4862461;29;20045;-82
2022/03/25 06:33:04;;;;;;;60.47;28.52;;;;;;;9.53;40.56;100215.38;4862720;29;20199;-83
2022/03/25 06:35:30;;;;;;;53.10;21.15;;;;;;;9.62;40.19;100199.81;4861951;29;20045;-81
2022/03/25 06:37:57;;;;;;;47.97;19.67;;;;;;;9.67;39.30;100198.09;4848643;29;20041;-83
2022/03/25 06:40:24;;;;;;;45.50;21.85;;;;;;;9.61;39.67;100178.13;4862797;29;20049;-82
2022/03/25 06:42:53;;;;;;;62.47;22.95;;;;;;;9.70;39.46;100176.44;4848329;29;20537;-82
2022/03/25 06:45:19;;;;;;;56.83;22.48;;;;;;;9.95;39.39;100209.38;4881944;29;20052;-80
2022/03/25 06:47:45;;;;;;;55.58;21.05;;;;;;;9.98;39.04;100213.69;4881862;29;20092;-81
2022/03/25 06:50:15;;;;;;;55.50;21.92;;;;;;;9.88;38.97;100186.81;4850718;29;20053;-81
2022/03/25 06:52:41;;;;;;;47.88;21.15;;;;;;;10.10;38.79;100211.09;4883755;29;20085;-81
2022/03/25 06:55:08;;;;;;;43.78;20.80;;;;;;;10.21;38.97;100208.50;4889300;29;20570;-82
2022/03/25 06:57:35;;;;;;;60.70;21.40;;;;;;;10.40;38.85;100209.34;4870820;29;20132;-82
2022/03/25 07:00:12;;;;;;;56.25;22.33;;;;;;;10.60;38.44;100212.78;4861404;29;20675;-84
2022/03/25 07:02:40;;;;;;;55.42;21.77;;;;;;;10.39;38.38;100150.38;4880159;29;20051;-83
2022/03/25 07:05:10;;;;;;;56.40;21.40;;;;;;;10.88;38.44;100220.53;4879124;29;20045;-85
2022/03/25 07:07:37;;;;;;;47.35;22.00;;;;;;;10.69;38.06;100160.72;4862441;29;20101;-83
2022/03/25 07:10:09;;;;;;;60.53;22.02;;;;;;;10.88;37.89;100178.88;4847694;29;20045;-86
2022/03/25 07:12:43;;;;;;;57.90;22.80;;;;;;;10.22;38.09;100043.78;4848084;29;20474;-84
2022/03/25 07:15:12;;;;;;;62.97;22.92;;;;;;;10.93;37.49;100153.66;4847319;29;20044;-83
2022/03/25 07:17:47;;;;;;;59.15;21.77;;;;;;;11.07;37.21;100167.50;4851051;29;20037;-81
2022/03/25 07:20:15;;;;;;;61.45;22.88;;;;;;;11.55;37.39;100227.16;4866646;29;20069;-81
2022/03/25 07:22:52;;;;;;;53.25;22.67;;;;;;;11.67;37.04;100223.59;4867985;29;20097;-85
2022/03/25 07:25:19;;;;;;;58.45;24.10;;;;;;;10.90;37.00;100065.19;4872695;29;20289;-83
2022/03/25 07:27:52;;;;;;;59.78;23.88;;;;;;;11.68;36.55;100156.72;4839313;29;20520;-84
2022/03/25 07:30:21;;;;;;;55.10;22.40;;;;;;;12.17;35.79;100220.66;4854335;29;20059;-85
2022/03/25 07:32:56;;;;;;;44.40;18.75;;;;;;;11.87;35.92;100140.03;4867867;29;20045;-86
2022/03/25 07:35:22;;;;;;;40.30;18.85;;;;;;;11.98;34.88;100102.53;4847127;29;20089;-81
2022/03/25 07:37:48;;;;;;;47.08;19.83;;;;;;;12.40;33.93;100143.91;4850080;29;20048;-82
2022/03/25 07:40:15;;;;;;;50.15;19.00;;;;;;;12.57;33.35;100117.63;4882180;29;20021;-82
2022/03/25 07:42:44;;;;;;;36.20;17.83;;;;;;;12.95;33.14;100155.44;4895117;29;20060;-82
2022/03/25 07:45:13;;;;;;;34.17;18.10;;;;;;;13.50;32.52;100211.31;4862963;29;20056;-83
2022/03/25 07:47:43;;;;;;;45.88;20.13;;;;;;;13.29;31.74;100143.66;4848916;29;20145;-82
2022/03/25 07:50:11;;;;;;;43.83;17.63;;;;;;;13.86;30.89;100203.78;4862037;29;20106;-82
2022/03/25 07:52:37;;;;;;;36.63;18.73;;;;;;;13.15;30.99;100048.03;4846383;29;20049;-83
2022/03/25 07:55:04;;;;;;;34.35;17.40;;;;;;;14.26;30.28;100186.56;4846750;29;20056;-84
2022/03/25 07:57:34;;;;;;;31.80;18.10;;;;;;;14.15;29.93;100116.09;4862230;29;20771;-85
2022/03/25 08:00:02;;;;;;;45.25;18.33;;;;;;;14.35;29.50;100103.50;4847953;29;20041;-81
2022/03/25 08:02:31;;;;;;;42.80;18.95;;;;;;;14.82;28.97;100153.25;4851383;29;20077;-83
2022/03/25 08:04:57;;;;;;;41.90;19.67;;;;;;;14.55;28.45;100095.25;4861078;29;20037;-83
2022/03/25 08:07:24;;;;;;;42.20;18.63;;;;;;;15.01;28.28;100149.34;4845014;29;20149;-83
2022/03/25 08:09:50;;;;;;;40.55;18.52;;;;;;;15.06;28.24;100120.41;4846774;29;20043;-83
2022/03/25 08:12:21;;;;;;;45.30;19.10;;;;;;;14.94;27.53;100111.06;4845291;29;20072;-80
2022/03/25 08:14:48;;;;;;;42.20;19.90;;;;;;;15.11;27.54;100151.78;4846710;29;20057;-84
2022/03/25 08:17:14;;;;;;;41.65;19.77;;;;;;;15.01;27.44;100123.13;4866165;29;20275;-84
2022/03/25 08:19:59;;;;;;;35.53;18.58;;;;;;;15.58;27.32;100197.00;4849253;29;20037;-83
2022/03/25 08:22:35;;;;;;;38.60;17.67;;;;;;;14.96;27.29;100069.13;4848989;29;20153;-83
2022/03/25 08:28:17;;;;;;;29.63;16.95;;;;;;;15.89;26.57;100175.31;4866021;29;20051;-82
2022/03/25 08:30:44;;;;;;;29.70;15.10;;;;;;;15.73;26.12;100164.28;4880543;29;20044;-82
2022/03/25 08:33:11;;;;;;;35.25;16.80;;;;;;;14.98;26.39;100076.03;4881876;29;20053;-84
2022/03/25 08:35:38;;;;;;;32.83;16.58;;;;;;;15.16;26.51;100113.19;4864156;29;20060;-83
2022/03/25 08:38:09;;;;;;;28.55;15.95;;;;;;;14.95;26.13;100096.22;4866030;29;20109;-84
2022/03/25 08:40:36;;;;;;;34.33;16.30;;;;;;;15.01;26.29;100131.00;4850474;29;20045;-84
2022/03/25 08:43:03;;;;;;;31.15;16.30;;;;;;;15.09;26.48;100164.03;4866037;29;20051;-82
2022/03/25 08:45:34;;;;;;;31.63;16.10;;;;;;;15.30;26.30;100186.28;4864220;29;20041;-80
2022/03/25 08:48:02;;;;;;;38.25;18.48;;;;;;;14.98;26.46;100152.00;4881998;29;20040;-82
2022/03/25 08:50:28;;;;;;;35.70;19.55;;;;;;;14.89;26.30;100166.19;4881141;29;20079;-81
2022/03/25 08:53:16;;;;;;;41.33;19.25;;;;;;;14.86;26.32;100170.63;4861788;29;20047;-80
2022/03/25 08:55:46;;;;;;;45.65;20.25;;;;;;;14.66;26.41;100161.41;4880719;29;20068;-82
2022/03/25 08:58:13;;;;;;;42.77;20.43;;;;;;;13.92;26.63;100065.94;4881899;29;20075;-81
2022/03/25 09:00:40;;;;;;;52.75;20.60;;;;;;;14.10;26.85;100096.16;4879292;29;20048;-83
2022/03/25 09:03:09;;;;;;;38.30;19.23;;;;;;;14.18;26.72;100127.41;4868930;29;20047;-82
2022/03/25 09:05:41;;;;;;;38.03;19.83;;;;;;;14.01;27.04;100118.13;4877079;29;20104;-80
2022/03/25 09:08:08;;;;;;;39.40;21.80;;;;;;;14.07;27.02;100138.91;4890595;29;20049;-81
2022/03/25 09:10:47;;;;;;;;;;;;;;;;;;;;;
2022/03/25 09:14:58;;;;;;;;;;;;;;;;;;;;;
2022/03/25 09:17:35;;;;;;;47.58;21.08;;;;;;;13.94;27.50;100017.94;4869938;29;20060;-81
2022/03/25 09:20:10;;;;;;;47.90;21.60;;;;;;;14.36;27.07;100066.84;4866436;29;20104;-84
2022/03/25 09:22:36;;;;;;;49.83;22.33;;;;;;;14.67;27.11;100126.44;4881472;29;20152;-82
2022/03/25 09:25:10;;;;;;;52.03;23.10;;;;;;;14.74;27.16;100141.16;4850403;29;20048;-86
2022/03/25 09:27:40;;;;;;;50.10;22.42;;;;;;;14.57;27.30;100119.66;4866280;29;20421;-79
2022/03/25 09:30:11;;;;;;;34.22;19.23;;;;;;;13.40;27.02;99959.69;4848548;29;20053;-82
2022/03/25 09:32:37;;;;;;;42.13;19.83;;;;;;;14.18;27.46;100138.72;4848413;29;20139;-80
2022/03/25 09:35:08;;;;;;;40.28;19.33;;;;;;;13.94;27.64;100174.88;4848410;29;20113;-79
2022/03/25 09:37:36;;;;;;;38.00;18.80;;;;;;;13.72;28.09;100169.16;4833903;29;20124;-80
2022/03/25 09:40:29;;;;;;;35.13;17.92;;;;;;;13.25;28.24;100124.50;4865396;29;20041;-80
2022/03/25 09:42:59;;;;;;;34.28;18.88;;;;;;;13.31;28.03;100157.56;4846833;29;20053;-80
2022/03/25 09:45:32;;;;;;;39.22;20.27;;;;;;;12.37;28.17;100005.63;4880854;29;20135;-79
2022/03/25 09:48:10;;;;;;;30.00;18.05;;;;;;;12.74;28.92;100065.16;4853104;29;20049;-79
2022/03/25 09:50:40;;;;;;;41.50;18.05;;;;;;;12.28;28.70;99991.81;4854856;29;20044;-78
2022/03/25 09:53:07;;;;;;;40.05;18.98;;;;;;;13.21;28.61;100141.16;4887485;29;20572;-79
2022/03/25 09:55:45;;;;;;;37.90;18.77;;;;;;;13.16;28.77;100135.97;4861259;29;20044;-77
2022/03/25 09:58:20;;;;;;;39.72;18.23;;;;;;;13.21;28.85;100115.03;4880226;29;20072;-79
2022/03/25 10:00:51;;;;;;;40.63;17.98;;;;;;;13.20;28.56;100108.91;4852429;29;20055;-80
2022/03/25 10:03:47;;;;;;;36.93;18.47;;;;;;;13.75;28.80;100155.16;4864379;29;20045;-78
2022/03/25 10:06:16;;;;;;;33.50;17.77;;;;;;;13.59;28.62;100079.59;4868777;29;20289;-80
2022/03/25 10:09:07;;;;;;;41.85;18.35;;;;;;;14.01;28.31;100152.13;4881782;29;20096;-79
2022/03/25 10:11:35;;;;;;;31.02;18.17;;;;;;;13.76;28.58;100160.38;4829541;29;20145;-80
2022/03/25 10:14:14;;;;;;;38.60;18.38;;;;;;;13.61;28.69;100143.19;4880307;29;20049;-80
2022/03/25 10:16:42;;;;;;;36.47;19.10;;;;;;;13.67;28.86;100130.03;4879663;29;20124;-79
2022/03/25 10:19:09;;;;;;;37.33;18.60;;;;;;;13.59;28.69;100115.31;4879635;29;20096;-81
2022/03/25 10:21:49;;;;;;;37.22;19.20;;;;;;;13.88;29.06;100147.97;4862687;29;20084;-81
2022/03/25 10:24:18;;;;;;;39.80;18.05;;;;;;;13.81;29.25;100121.91;4884713;29;20202;-82
2022/03/25 10:26:46;;;;;;;31.98;17.60;;;;;;;13.79;29.04;100096.69;4879570;29;20095;-78
2022/03/25 10:29:22;;;;;;;42.22;18.23;;;;;;;14.06;28.68;100131.97;4882064;29;20108;-81
2022/03/25 10:32:10;;;;;;;32.20;17.20;;;;;;;13.94;28.77;100135.66;4857383;29;20052;-80
2022/03/25 10:34:38;;;;;;;30.95;17.88;;;;;;;13.58;28.96;100074.38;4871562;29;20041;-80
2022/03/25 10:37:11;;;;;;;40.78;19.33;;;;;;;13.97;29.04;100133.00;4854236;29;20544;-81
2022/03/25 10:39:50;;;;;;;35.67;18.38;;;;;;;13.57;28.93;100064.84;4870425;29;20124;-78
2022/03/25 10:42:16;;;;;;;36.80;17.33;;;;;;;13.61;29.04;100085.66;4863185;29;20524;-81
2022/03/25 10:44:43;;;;;;;34.15;16.70;;;;;;;13.76;29.10;100089.78;4831203;29;20169;-82
2022/03/25 10:47:18;;;;;;;28.58;15.10;;;;;;;14.14;28.51;100126.56;4845882;29;20131;-82
2022/03/25 10:49:49;;;;;;;32.17;13.80;;;;;;;14.27;28.91;100135.94;4861822;29;20053;-83
2022/03/25 10:52:22;;;;;;;30.02;13.07;;;;;;;14.52;28.91;100114.53;4834795;29;20089;-79
2022/03/25 10:54:49;;;;;;;29.00;13.18;;;;;;;14.72;28.66;100127.22;4863698;29;20053;-81
2022/03/25 10:57:17;;;;;;;21.77;12.27;;;;;;;14.84;28.52;100114.78;4848416;29;20040;-82
2022/03/25 11:00:01;;;;;;;23.27;13.40;;;;;;;15.03;28.24;100092.53;4863574;29;20045;-83
2022/03/25 11:02:28;;;;;;;30.80;13.27;;;;;;;15.46;27.94;100119.47;4862031;29;20456;-81
2022/03/25 11:04:55;;;;;;;18.20;12.80;;;;;;;15.36;27.83;100071.63;4862588;29;20715;-78
2022/03/25 11:07:24;;;;;;;25.73;12.93;;;;;;;15.63;27.41;100082.34;4862675;29;20120;-83
2022/03/25 11:09:50;;;;;;;22.10;13.43;;;;;;;15.46;26.97;100055.69;4863170;29;20055;-81
2022/03/25 11:12:17;;;;;;;33.42;15.00;;;;;;;15.13;27.08;100052.97;4879614;29;20041;-80
2022/03/25 11:14:43;;;;;;;28.00;16.83;;;;;;;14.90;27.50;100112.00;4860977;29;20049;-81
2022/03/25 11:17:09;;;;;;;35.60;16.88;;;;;;;14.59;27.86;100110.03;4862747;29;20048;-82
2022/03/25 11:19:37;;;;;;;31.15;16.42;;;;;;;13.97;28.12;100058.88;4862633;29;20056;-81
2022/03/25 11:22:05;;;;;;;35.80;16.95;;;;;;;13.53;28.44;100023.06;4864258;29;20505;-83
2022/03/25 11:24:43;;;;;;;25.95;15.50;;;;;;;14.04;28.73;100111.97;4862446;29;20049;-87
2022/03/25 11:27:19;;;;;;;36.97;16.15;;;;;;;13.35;28.55;100010.28;4845005;29;20048;-84
2022/03/25 11:29:48;;;;;;;29.50;15.63;;;;;;;13.91;28.69;100095.63;4846471;29;20056;-78